createdAt,value
2016-08-02T00:00:06.643Z,1007.02
2016-08-02T00:01:06.622Z,1007.03
2016-08-02T00:02:06.602Z,1007.05
2016-08-02T00:03:06.582Z,1007.07
2016-08-02T00:04:06.561Z,1007.08
2016-08-02T00:05:06.541Z,1007.07
2016-08-02T00:06:06.521Z,1007.08
2016-08-02T00:07:06.501Z,1007.08
2016-08-02T00:08:06.479Z,1007.09
2016-08-02T00:09:06.458Z,1007.09
2016-08-02T00:10:06.438Z,1007.1
2016-08-02T00:11:06.416Z,1007.13
2016-08-02T00:12:06.397Z,1007.06
2016-08-02T00:13:06.376Z,1007.1
2016-08-02T00:14:06.355Z,1007.07
2016-08-02T00:15:06.335Z,1007.02
2016-08-02T00:16:06.315Z,1006.98
2016-08-02T00:17:06.295Z,1007.02
2016-08-02T00:18:06.274Z,1006.99
2016-08-02T00:19:06.252Z,1006.91
2016-08-02T00:20:06.232Z,1006.91
2016-08-02T00:21:06.211Z,1006.83
2016-08-02T00:22:06.190Z,1006.82
2016-08-02T00:23:06.169Z,1006.8
2016-08-02T00:24:06.149Z,1006.78
2016-08-02T00:25:06.128Z,1006.81
2016-08-02T00:26:06.108Z,1006.86
2016-08-02T00:27:06.088Z,1006.85
2016-08-02T00:28:06.067Z,1006.9
2016-08-02T00:29:06.046Z,1006.96
2016-08-02T00:30:06.024Z,1006.97
2016-08-02T00:31:06.003Z,1007.02
2016-08-02T00:32:05.983Z,1007.04
2016-08-02T00:33:05.962Z,1007
2016-08-02T00:34:05.940Z,1006.97
2016-08-02T00:35:05.919Z,1006.89
2016-08-02T00:36:05.899Z,1006.85
2016-08-02T00:37:05.877Z,1006.82
2016-08-02T00:38:05.856Z,1006.8
2016-08-02T00:39:05.837Z,1006.82
2016-08-02T00:40:05.816Z,1006.79
2016-08-02T00:41:05.792Z,1006.78
2016-08-02T00:42:05.773Z,1006.8
2016-08-02T00:43:05.752Z,1006.74
2016-08-02T00:44:05.731Z,1006.8
2016-08-02T00:45:05.709Z,1006.77
2016-08-02T00:46:05.689Z,1006.79
2016-08-02T00:47:05.668Z,1006.81
2016-08-02T00:48:05.646Z,1006.8
2016-08-02T00:49:05.625Z,1006.77
2016-08-02T00:50:05.605Z,1006.78
2016-08-02T00:51:05.584Z,1006.73
2016-08-02T00:52:05.612Z,1006.7
2016-08-02T00:53:05.541Z,1006.71
2016-08-02T00:54:05.521Z,1006.65
2016-08-02T00:55:05.498Z,1006.66
2016-08-02T00:56:05.477Z,1006.7
2016-08-02T00:57:05.456Z,1006.64
2016-08-02T00:58:05.437Z,1006.65
2016-08-02T00:59:05.415Z,1006.62
2016-08-02T01:00:05.395Z,1006.62
2016-08-02T01:01:05.375Z,1006.67
2016-08-02T01:02:05.354Z,1006.68
2016-08-02T01:03:05.331Z,1006.66
2016-08-02T01:04:05.310Z,1006.64
2016-08-02T01:05:05.289Z,1006.65
2016-08-02T01:06:05.268Z,1006.66
2016-08-02T01:07:05.248Z,1006.68
2016-08-02T01:08:05.228Z,1006.69
2016-08-02T01:09:05.206Z,1006.78
2016-08-02T01:10:05.184Z,1006.76
2016-08-02T01:11:05.163Z,1006.75
2016-08-02T01:12:05.143Z,1006.75
2016-08-02T01:13:05.121Z,1006.84
2016-08-02T01:14:05.100Z,1006.85
2016-08-02T01:15:05.079Z,1006.89
2016-08-02T01:16:05.064Z,1006.93
2016-08-02T01:17:05.037Z,1006.94
2016-08-02T01:18:05.016Z,1006.95
2016-08-02T01:19:04.996Z,1006.83
2016-08-02T01:20:04.975Z,1006.77
2016-08-02T01:21:04.953Z,1006.67
2016-08-02T01:22:04.932Z,1006.7
2016-08-02T01:23:04.911Z,1006.71
2016-08-02T01:24:04.892Z,1006.72
2016-08-02T01:25:04.870Z,1006.7
2016-08-02T01:26:04.848Z,1006.67
2016-08-02T01:27:04.827Z,1006.74
2016-08-02T01:28:04.804Z,1006.81
2016-08-02T01:29:04.784Z,1006.81
2016-08-02T01:30:04.763Z,1006.86
2016-08-02T01:31:04.742Z,1006.83
2016-08-02T01:32:04.720Z,1006.79
2016-08-02T01:33:04.699Z,1006.82
2016-08-02T01:34:04.679Z,1006.81
2016-08-02T01:35:04.657Z,1006.72
2016-08-02T01:36:04.635Z,1006.57
2016-08-02T01:37:04.613Z,1006.55
2016-08-02T01:38:04.592Z,1006.63
2016-08-02T01:39:04.570Z,1006.65
2016-08-02T01:40:04.550Z,1006.67
2016-08-02T01:41:04.529Z,1006.74
2016-08-02T01:42:04.506Z,1006.7
2016-08-02T01:43:04.485Z,1006.66
2016-08-02T01:44:04.464Z,1006.61
2016-08-02T01:45:04.442Z,1006.59
2016-08-02T01:46:04.421Z,1006.61
2016-08-02T01:47:04.399Z,1006.59
2016-08-02T01:48:04.379Z,1006.56
2016-08-02T01:49:04.357Z,1006.56
2016-08-02T01:50:04.335Z,1006.56
2016-08-02T01:51:04.315Z,1006.57
2016-08-02T01:52:04.296Z,1006.57
2016-08-02T01:53:04.271Z,1006.55
2016-08-02T01:54:04.249Z,1006.52
2016-08-02T01:55:04.227Z,1006.52
2016-08-02T01:56:04.207Z,1006.49
2016-08-02T01:57:04.184Z,1006.48
2016-08-02T01:58:04.164Z,1006.49
2016-08-02T01:59:04.147Z,1006.43
2016-08-02T02:00:04.121Z,1006.43
2016-08-02T02:01:04.099Z,1006.42
2016-08-02T02:02:04.102Z,1006.42
2016-08-02T02:03:04.056Z,1006.43
2016-08-02T02:04:04.035Z,1006.41
2016-08-02T02:05:04.012Z,1006.4
2016-08-02T02:06:03.991Z,1006.4
2016-08-02T02:07:03.971Z,1006.43
2016-08-02T02:08:03.948Z,1006.4
2016-08-02T02:09:03.928Z,1006.44
2016-08-02T02:10:03.907Z,1006.38
2016-08-02T02:11:03.884Z,1006.34
2016-08-02T02:12:03.863Z,1006.35
2016-08-02T02:13:03.841Z,1006.34
2016-08-02T02:14:03.820Z,1006.33
2016-08-02T02:15:03.800Z,1006.32
2016-08-02T02:16:03.777Z,1006.32
2016-08-02T02:17:03.755Z,1006.32
2016-08-02T02:18:03.735Z,1006.31
2016-08-02T02:19:03.712Z,1006.26
2016-08-02T02:20:03.691Z,1006.23
2016-08-02T02:21:03.670Z,1006.19
2016-08-02T02:22:03.650Z,1006.15
2016-08-02T02:23:03.628Z,1006.11
2016-08-02T02:25:03.586Z,1006.13
2016-08-02T02:26:03.565Z,1006.13
2016-08-02T02:27:03.544Z,1006.12
2016-08-02T02:28:03.523Z,1006.1
2016-08-02T02:29:03.500Z,1006.1
2016-08-02T02:30:03.480Z,1006.08
2016-08-02T02:31:03.457Z,1006.08
2016-08-02T02:32:03.436Z,1006.03
2016-08-02T02:33:03.415Z,1006.06
2016-08-02T02:34:03.393Z,1006.02
2016-08-02T02:35:03.374Z,1005.99
2016-08-02T02:36:03.351Z,1005.99
2016-08-02T02:37:03.331Z,1005.97
2016-08-02T02:38:03.310Z,1005.98
2016-08-02T02:40:03.268Z,1005.96
2016-08-02T02:41:03.245Z,1005.94
2016-08-02T02:42:03.223Z,1005.99
2016-08-02T02:43:03.204Z,1006.01
2016-08-02T02:44:03.182Z,1005.99
2016-08-02T02:45:03.162Z,1006.02
2016-08-02T02:46:03.140Z,1006.01
2016-08-02T02:47:03.118Z,1006.01
2016-08-02T02:48:03.098Z,1005.96
2016-08-02T02:49:03.076Z,1005.95
2016-08-02T02:50:03.055Z,1005.95
2016-08-02T02:51:03.035Z,1005.89
2016-08-02T02:52:03.012Z,1005.92
2016-08-02T02:53:02.991Z,1005.92
2016-08-02T02:55:02.951Z,1005.94
2016-08-02T02:56:02.929Z,1005.91
2016-08-02T02:57:02.906Z,1005.87
2016-08-02T02:58:02.886Z,1005.89
2016-08-02T02:59:02.865Z,1005.89
2016-08-02T03:00:02.845Z,1005.87
2016-08-02T03:01:02.822Z,1005.83
2016-08-02T03:02:02.802Z,1005.82
2016-08-02T03:03:02.779Z,1005.81
2016-08-02T03:04:02.759Z,1005.82
2016-08-02T03:05:02.742Z,1005.8
2016-08-02T03:06:02.717Z,1005.82
2016-08-02T03:07:02.695Z,1005.81
2016-08-02T03:08:02.675Z,1005.77
2016-08-02T03:10:02.634Z,1005.82
2016-08-02T03:11:02.611Z,1005.82
2016-08-02T03:12:02.590Z,1005.88
2016-08-02T03:13:02.569Z,1005.89
2016-08-02T03:14:02.547Z,1005.88
2016-08-02T03:15:02.528Z,1005.85
2016-08-02T03:16:02.506Z,1005.83
2016-08-02T03:17:02.484Z,1005.8
2016-08-02T03:18:02.462Z,1005.8
2016-08-02T03:19:02.443Z,1005.8
2016-08-02T03:20:02.425Z,1005.84
2016-08-02T03:21:02.400Z,1005.78
2016-08-02T03:22:02.379Z,1005.79
2016-08-02T03:23:02.359Z,1005.8
2016-08-02T03:24:02.338Z,1005.77
2016-08-02T03:25:02.315Z,1005.73
2016-08-02T03:26:02.294Z,1005.74
2016-08-02T03:27:02.274Z,1005.71
2016-08-02T03:28:02.253Z,1005.7
2016-08-02T03:29:02.230Z,1005.69
2016-08-02T03:30:02.210Z,1005.64
2016-08-02T03:31:02.191Z,1005.61
2016-08-02T03:32:02.168Z,1005.55
2016-08-02T03:33:02.147Z,1005.54
2016-08-02T03:34:02.125Z,1005.51
2016-08-02T03:35:02.104Z,1005.51
2016-08-02T03:36:02.084Z,1005.48
2016-08-02T03:37:02.064Z,1005.49
2016-08-02T03:38:02.041Z,1005.49
2016-08-02T03:39:02.020Z,1005.52
2016-08-02T03:40:01.999Z,1005.51
2016-08-02T03:41:01.978Z,1005.47
2016-08-02T03:42:01.956Z,1005.48
2016-08-02T03:43:01.934Z,1005.46
2016-08-02T03:44:01.913Z,1005.4
2016-08-02T03:45:01.894Z,1005.39
2016-08-02T03:46:01.872Z,1005.34
2016-08-02T03:47:01.850Z,1005.34
2016-08-02T03:48:01.833Z,1005.32
2016-08-02T03:49:01.808Z,1005.33
2016-08-02T03:50:01.787Z,1005.29
2016-08-02T03:51:01.766Z,1005.24
2016-08-02T03:52:01.744Z,1005.23
2016-08-02T03:53:01.723Z,1005.26
2016-08-02T03:54:01.700Z,1005.24
2016-08-02T03:55:01.680Z,1005.27
2016-08-02T03:56:01.659Z,1005.27
2016-08-02T03:57:01.638Z,1005.24
2016-08-02T03:58:01.616Z,1005.22
2016-08-02T03:59:01.594Z,1005.22
2016-08-02T04:00:01.574Z,1005.24
2016-08-02T04:01:01.554Z,1005.23
2016-08-02T04:02:01.533Z,1005.2
2016-08-02T04:03:01.511Z,1005.21
2016-08-02T04:04:01.489Z,1005.19
2016-08-02T04:05:01.468Z,1005.21
2016-08-02T04:06:01.446Z,1005.19
2016-08-02T04:07:01.426Z,1005.14
2016-08-02T04:08:01.406Z,1005.13
2016-08-02T04:09:01.383Z,1005.13
2016-08-02T04:10:01.363Z,1005.08
2016-08-02T04:11:01.342Z,1005.09
2016-08-02T04:12:01.322Z,1005.09
2016-08-02T04:13:01.298Z,1005.09
2016-08-02T04:14:01.277Z,1005.04
2016-08-02T04:15:01.256Z,1005.09
2016-08-02T04:16:01.234Z,1005.12
2016-08-02T04:17:01.213Z,1005.17
2016-08-02T04:18:01.192Z,1005.15
2016-08-02T04:19:01.171Z,1005.15
2016-08-02T04:20:01.149Z,1005.13
2016-08-02T04:21:01.130Z,1005.08
2016-08-02T04:22:01.107Z,1005.03
2016-08-02T04:23:01.089Z,1005.04
2016-08-02T04:24:01.065Z,1005.05
2016-08-02T04:25:01.045Z,1005.08
2016-08-02T04:26:01.025Z,1005.06
2016-08-02T04:27:01.002Z,1005.05
2016-08-02T04:28:00.981Z,1004.98
2016-08-02T04:29:00.960Z,1004.98
2016-08-02T04:30:00.939Z,1004.93
2016-08-02T04:31:00.917Z,1004.95
2016-08-02T04:32:00.896Z,1004.93
2016-08-02T04:33:00.875Z,1004.97
2016-08-02T04:34:00.855Z,1004.96
2016-08-02T04:35:00.833Z,1004.99
2016-08-02T04:36:00.813Z,1004.96
2016-08-02T04:37:00.791Z,1004.98
2016-08-02T04:38:00.770Z,1005.01
2016-08-02T04:39:00.749Z,1005
2016-08-02T04:40:00.728Z,1005
2016-08-02T04:41:00.707Z,1005.01
2016-08-02T04:42:00.684Z,1005
2016-08-02T04:43:00.665Z,1004.98
2016-08-02T04:44:00.643Z,1004.99
2016-08-02T04:45:00.622Z,1005.01
2016-08-02T04:46:00.602Z,1005.02
2016-08-02T04:47:00.579Z,1005.06
2016-08-02T04:48:00.559Z,1005.1
2016-08-02T04:49:00.537Z,1005.09
2016-08-02T04:50:00.516Z,1005.01
2016-08-02T04:51:00.496Z,1004.96
2016-08-02T04:52:00.475Z,1004.96
2016-08-02T04:53:00.454Z,1004.99
2016-08-02T04:54:00.432Z,1004.96
2016-08-02T04:55:00.411Z,1005
2016-08-02T04:56:00.391Z,1005.01
2016-08-02T04:57:00.370Z,1005
2016-08-02T04:58:00.357Z,1005
2016-08-02T04:59:00.328Z,1004.96
2016-08-02T05:00:00.307Z,1004.97
2016-08-02T05:01:00.286Z,1004.97
2016-08-02T05:02:00.264Z,1004.99
2016-08-02T05:03:00.244Z,1005.02
2016-08-02T05:04:00.224Z,1005.02
2016-08-02T05:05:00.201Z,1005.03
2016-08-02T05:06:00.179Z,1005
2016-08-02T05:07:00.158Z,1005
2016-08-02T05:08:00.138Z,1005.02
2016-08-02T05:09:00.118Z,1005.02
2016-08-02T05:10:00.096Z,1005.02
2016-08-02T05:11:00.074Z,1005.03
2016-08-02T05:12:00.054Z,1005.01
2016-08-02T05:13:00.033Z,1005.05
2016-08-02T05:14:00.012Z,1005
2016-08-02T05:14:59.990Z,1005.04
2016-08-02T05:15:59.969Z,1005.09
2016-08-02T05:16:59.948Z,1005.04
2016-08-02T05:17:59.940Z,1005.08
2016-08-02T05:18:59.906Z,1005.07
2016-08-02T05:19:59.887Z,1005.05
2016-08-02T05:20:59.866Z,1005.06
2016-08-02T05:21:59.843Z,1005.07
2016-08-02T05:22:59.824Z,1005.07
2016-08-02T05:23:59.802Z,1005.07
2016-08-02T05:24:59.781Z,1005.05
2016-08-02T05:25:59.761Z,1005.03
2016-08-02T05:26:59.740Z,1005.04
2016-08-02T05:27:59.719Z,1005.03
2016-08-02T05:28:59.698Z,1005.05
2016-08-02T05:29:59.678Z,1005.03
2016-08-02T05:30:59.658Z,1005.03
2016-08-02T05:31:59.636Z,1005.08
2016-08-02T05:32:59.615Z,1005.07
2016-08-02T05:33:59.595Z,1005.06
2016-08-02T05:34:59.612Z,1005.06
2016-08-02T05:35:59.553Z,1005.07
2016-08-02T05:36:59.533Z,1005.06
2016-08-02T05:37:59.511Z,1005.05
2016-08-02T05:38:59.491Z,1005.06
2016-08-02T05:39:59.470Z,1005.02
2016-08-02T05:40:59.450Z,1005.07
2016-08-02T05:41:59.538Z,1005.09
2016-08-02T05:42:59.411Z,1005.03
2016-08-02T05:43:59.388Z,1005.05
2016-08-02T05:44:59.369Z,1005.06
2016-08-02T05:45:59.348Z,1005.06
2016-08-02T05:46:59.328Z,1005.05
2016-08-02T05:47:59.307Z,1005
2016-08-02T05:48:59.287Z,1004.99
2016-08-02T05:49:59.267Z,1004.98
2016-08-02T05:50:59.246Z,1004.98
2016-08-02T05:51:59.226Z,1005.01
2016-08-02T05:52:59.206Z,1004.96
2016-08-02T05:53:59.186Z,1004.99
2016-08-02T05:54:59.165Z,1004.97
2016-08-02T05:55:59.145Z,1005
2016-08-02T05:56:59.130Z,1004.94
2016-08-02T05:57:59.105Z,1004.91
2016-08-02T05:58:59.088Z,1004.95
2016-08-02T05:59:59.064Z,1004.96
2016-08-02T06:00:59.044Z,1004.93
2016-08-02T06:01:59.023Z,1004.97
2016-08-02T06:02:59.004Z,1004.98
2016-08-02T06:03:58.983Z,1004.99
2016-08-02T06:04:58.963Z,1004.98
2016-08-02T06:05:58.942Z,1004.98
2016-08-02T06:06:58.922Z,1004.96
2016-08-02T06:07:59.359Z,1004.99
2016-08-02T06:08:58.882Z,1004.99
2016-08-02T06:09:58.861Z,1004.95
2016-08-02T06:10:58.841Z,1004.95
2016-08-02T06:11:58.821Z,1004.98
2016-08-02T06:12:58.802Z,1004.99
2016-08-02T06:13:58.782Z,1004.99
2016-08-02T06:14:58.761Z,1005.04
2016-08-02T06:15:58.740Z,1005.04
2016-08-02T06:16:58.718Z,1005.02
2016-08-02T06:17:58.699Z,1004.97
2016-08-02T06:18:58.681Z,1004.92
2016-08-02T06:19:58.659Z,1004.94
2016-08-02T06:20:58.637Z,1004.95
2016-08-02T06:21:58.672Z,1004.91
2016-08-02T06:22:58.599Z,1004.92
2016-08-02T06:23:58.577Z,1004.92
2016-08-02T06:24:58.661Z,1004.89
2016-08-02T06:25:58.627Z,1004.88
2016-08-02T06:26:58.518Z,1004.91
2016-08-02T06:27:58.506Z,1004.9
2016-08-02T06:28:58.478Z,1004.9
2016-08-02T06:29:58.459Z,1004.95
2016-08-02T06:30:58.440Z,1004.95
2016-08-02T06:31:58.474Z,1004.94
2016-08-02T06:32:58.466Z,1004.9
2016-08-02T06:33:58.434Z,1004.94
2016-08-02T06:34:58.364Z,1004.95
2016-08-02T06:35:58.416Z,1004.96
2016-08-02T06:36:58.323Z,1004.93
2016-08-02T06:37:58.354Z,1004.92
2016-08-02T06:38:58.313Z,1004.92
2016-08-02T06:39:58.263Z,1004.97
2016-08-02T06:40:58.362Z,1004.91
2016-08-02T06:41:58.342Z,1004.91
2016-08-02T06:42:58.260Z,1004.87
2016-08-02T06:43:58.303Z,1004.89
2016-08-02T06:44:58.285Z,1004.86
2016-08-02T06:45:58.202Z,1004.87
2016-08-02T06:46:58.181Z,1004.87
2016-08-02T06:47:58.161Z,1004.86
2016-08-02T06:48:58.090Z,1004.87
2016-08-02T06:49:58.179Z,1004.84
2016-08-02T06:50:58.205Z,1004.83
2016-08-02T06:51:58.270Z,1004.77
2016-08-02T06:52:58.014Z,1004.81
2016-08-02T06:53:58.066Z,1004.84
2016-08-02T06:54:58.023Z,1004.79
2016-08-02T06:55:57.999Z,1004.73
2016-08-02T06:56:58.136Z,1004.74
2016-08-02T06:57:57.981Z,1004.74
2016-08-02T06:58:58.016Z,1004.75
2016-08-02T06:59:58.080Z,1004.75
2016-08-02T07:00:57.984Z,1004.76
2016-08-02T07:01:58.227Z,1004.71
2016-08-02T07:02:57.824Z,1004.71
2016-08-02T07:03:57.859Z,1004.7
2016-08-02T07:04:57.986Z,1004.71
2016-08-02T07:05:57.920Z,1004.76
2016-08-02T07:06:57.917Z,1004.74
2016-08-02T07:07:57.979Z,1004.75
2016-08-02T07:08:57.920Z,1004.77
2016-08-02T07:09:57.956Z,1004.74
2016-08-02T07:10:57.851Z,1004.7
2016-08-02T07:11:57.918Z,1004.71
2016-08-02T07:12:57.909Z,1004.73
2016-08-02T07:13:57.859Z,1004.78
2016-08-02T07:14:57.900Z,1004.75
2016-08-02T07:15:57.700Z,1004.73
2016-08-02T07:16:57.623Z,1004.74
2016-08-02T07:17:57.665Z,1004.72
2016-08-02T07:18:57.586Z,1004.72
2016-08-02T07:19:57.620Z,1004.68
2016-08-02T07:20:57.581Z,1004.7
2016-08-02T07:21:57.531Z,1004.64
2016-08-02T07:22:57.512Z,1004.64
2016-08-02T07:23:57.493Z,1004.65
2016-08-02T07:24:57.518Z,1004.63
2016-08-02T07:25:57.465Z,1004.67
2016-08-02T07:26:57.562Z,1004.65
2016-08-02T07:27:57.585Z,1004.65
2016-08-02T07:28:57.508Z,1004.67
2016-08-02T07:29:57.448Z,1004.65
2016-08-02T07:30:57.466Z,1004.67
2016-08-02T07:31:57.426Z,1004.66
2016-08-02T07:32:57.465Z,1004.7
2016-08-02T07:33:57.499Z,1004.68
2016-08-02T07:34:57.435Z,1004.7
2016-08-02T07:35:57.424Z,1004.7
2016-08-02T07:36:57.569Z,1004.66
2016-08-02T07:37:57.409Z,1004.7
2016-08-02T07:38:57.274Z,1004.68
2016-08-02T07:40:57.148Z,1004.66
2016-08-02T07:41:57.339Z,1004.65
2016-08-02T07:42:57.345Z,1004.69
2016-08-02T07:43:57.350Z,1004.67
2016-08-02T07:44:57.228Z,1004.64
2016-08-02T07:45:57.343Z,1004.63
2016-08-02T07:46:57.325Z,1004.64
2016-08-02T07:47:57.290Z,1004.64
2016-08-02T07:48:57.233Z,1004.64
2016-08-02T07:49:57.215Z,1004.69
2016-08-02T07:50:57.213Z,1004.66
2016-08-02T07:51:57.184Z,1004.66
2016-08-02T07:52:57.335Z,1004.67
2016-08-02T07:53:57.194Z,1004.65
2016-08-02T07:55:57.165Z,1004.67
2016-08-02T07:56:57.079Z,1004.64
2016-08-02T07:57:57.135Z,1004.65
2016-08-02T07:58:57.140Z,1004.62
2016-08-02T07:59:57.028Z,1004.63
2016-08-02T08:00:57.022Z,1004.61
2016-08-02T08:01:57.251Z,1004.58
2016-08-02T08:02:57.059Z,1004.56
2016-08-02T08:03:57.062Z,1004.56
2016-08-02T08:04:56.895Z,1004.54
2016-08-02T08:05:56.957Z,1004.52
2016-08-02T08:06:56.935Z,1004.52
2016-08-02T08:07:56.772Z,1004.56
2016-08-02T08:08:56.886Z,1004.56
2016-08-02T08:10:56.922Z,1004.53
2016-08-02T08:11:56.659Z,1004.54
2016-08-02T08:12:56.702Z,1004.55
2016-08-02T08:13:56.682Z,1004.58
2016-08-02T08:14:56.597Z,1004.57
2016-08-02T08:15:56.677Z,1004.51
2016-08-02T08:16:56.526Z,1004.55
2016-08-02T08:17:56.690Z,1004.56
2016-08-02T08:18:56.684Z,1004.58
2016-08-02T08:19:56.699Z,1004.58
2016-08-02T08:20:56.644Z,1004.62
2016-08-02T08:21:56.612Z,1004.6
2016-08-02T08:22:56.885Z,1004.54
2016-08-02T08:23:56.673Z,1004.54
2016-08-02T08:25:56.612Z,1004.45
2016-08-02T08:26:56.559Z,1004.45
2016-08-02T08:27:56.482Z,1004.43
2016-08-02T08:28:56.470Z,1004.43
2016-08-02T08:29:56.320Z,1004.49
2016-08-02T08:30:56.335Z,1004.45
2016-08-02T08:31:56.364Z,1004.47
2016-08-02T08:32:56.386Z,1004.47
2016-08-02T08:33:56.426Z,1004.46
2016-08-02T08:34:56.279Z,1004.47
2016-08-02T08:35:56.196Z,1004.46
2016-08-02T08:36:56.135Z,1004.45
2016-08-02T08:37:56.124Z,1004.41
2016-08-02T08:38:56.098Z,1004.39
2016-08-02T08:40:56.379Z,1004.36
2016-08-02T08:41:56.215Z,1004.4
2016-08-02T08:42:56.199Z,1004.39
2016-08-02T08:43:56.076Z,1004.36
2016-08-02T08:44:55.991Z,1004.28
2016-08-02T08:45:56.186Z,1004.33
2016-08-02T08:46:56.043Z,1004.29
2016-08-02T08:47:56.063Z,1004.23
2016-08-02T08:48:56.228Z,1004.27
2016-08-02T08:49:56.202Z,1004.27
2016-08-02T08:50:56.003Z,1004.27
2016-08-02T08:51:55.993Z,1004.25
2016-08-02T08:52:55.929Z,1004.23
2016-08-02T08:53:55.919Z,1004.24
2016-08-02T08:54:55.979Z,1004.21
2016-08-02T08:55:55.986Z,1004.25
2016-08-02T08:56:56.137Z,1004.27
2016-08-02T08:57:56.010Z,1004.26
2016-08-02T08:58:55.946Z,1004.22
2016-08-02T08:59:55.851Z,1004.16
2016-08-02T09:00:55.861Z,1004.23
2016-08-02T09:01:55.862Z,1004.23
2016-08-02T09:02:55.866Z,1004.18
2016-08-02T09:03:55.778Z,1004.2
2016-08-02T09:04:55.783Z,1004.19
2016-08-02T09:05:55.866Z,1004.16
2016-08-02T09:06:55.814Z,1004.16
2016-08-02T09:07:55.781Z,1004.14
2016-08-02T09:08:55.848Z,1004.14
2016-08-02T09:09:55.798Z,1004.16
2016-08-02T09:10:55.775Z,1004.13
2016-08-02T09:11:55.911Z,1004.14
2016-08-02T09:12:55.914Z,1004.13
2016-08-02T09:13:55.829Z,1004.14
2016-08-02T09:14:55.707Z,1004.2
2016-08-02T09:15:55.755Z,1004.18
2016-08-02T09:16:55.640Z,1004.13
2016-08-02T09:17:55.651Z,1004.13
2016-08-02T09:18:55.691Z,1004.13
2016-08-02T09:19:55.539Z,1004.15
2016-08-02T09:20:55.576Z,1004.1
2016-08-02T09:21:55.548Z,1004.1
2016-08-02T09:22:55.605Z,1004.11
2016-08-02T09:23:55.605Z,1004.08
2016-08-02T09:24:55.596Z,1004.12
2016-08-02T09:25:55.518Z,1004.13
2016-08-02T09:26:55.446Z,1004.12
2016-08-02T09:27:55.492Z,1004.14
2016-08-02T09:28:55.534Z,1004.08
2016-08-02T09:29:55.645Z,1004.12
2016-08-02T09:30:55.369Z,1004.19
2016-08-02T09:31:55.360Z,1004.12
2016-08-02T09:32:55.556Z,1004.12
2016-08-02T09:33:55.580Z,1004.16
2016-08-02T09:34:55.522Z,1004.21
2016-08-02T09:35:55.471Z,1004.18
2016-08-02T09:36:55.422Z,1004.19
2016-08-02T09:37:55.428Z,1004.16
2016-08-02T09:38:55.401Z,1004.22
2016-08-02T09:39:55.383Z,1004.14
2016-08-02T09:40:55.481Z,1004.16
2016-08-02T09:41:55.282Z,1004.12
2016-08-02T09:42:55.260Z,1004.06
2016-08-02T09:43:55.267Z,1004.12
2016-08-02T09:44:55.374Z,1004.11
2016-08-02T09:45:55.216Z,1004.06
2016-08-02T09:46:55.210Z,1004.01
2016-08-02T09:47:55.309Z,1004.06
2016-08-02T09:48:55.314Z,1003.97
2016-08-02T09:49:55.322Z,1003.99
2016-08-02T09:50:55.496Z,1003.96
2016-08-02T09:51:55.242Z,1003.95
2016-08-02T09:52:55.247Z,1003.92
2016-08-02T09:53:55.040Z,1003.97
2016-08-02T09:54:55.112Z,1003.97
2016-08-02T09:55:55.224Z,1003.98
2016-08-02T09:56:55.208Z,1003.96
2016-08-02T09:57:55.079Z,1003.94
2016-08-02T09:58:55.104Z,1003.98
2016-08-02T09:59:55.141Z,1003.97
2016-08-02T10:00:55.165Z,1003.91
2016-08-02T10:01:55.061Z,1003.92
2016-08-02T10:02:55.003Z,1003.86
2016-08-02T10:03:54.979Z,1003.86
2016-08-02T10:04:54.960Z,1003.82
2016-08-02T10:05:54.975Z,1003.83
2016-08-02T10:06:54.887Z,1003.79
2016-08-02T10:07:54.900Z,1003.77
2016-08-02T10:08:54.930Z,1003.73
2016-08-02T10:09:54.955Z,1003.76
2016-08-02T10:10:55.012Z,1003.76
2016-08-02T10:11:54.944Z,1003.74
2016-08-02T10:12:54.889Z,1003.76
2016-08-02T10:13:54.913Z,1003.77
2016-08-02T10:14:54.905Z,1003.83
2016-08-02T10:15:54.925Z,1003.78
2016-08-02T10:16:54.898Z,1003.78
2016-08-02T10:17:54.836Z,1003.81
2016-08-02T10:18:54.846Z,1003.82
2016-08-02T10:19:54.850Z,1003.79
2016-08-02T10:20:54.810Z,1003.82
2016-08-02T10:21:54.747Z,1003.81
2016-08-02T10:22:54.749Z,1003.83
2016-08-02T10:23:54.766Z,1003.81
2016-08-02T10:24:54.756Z,1003.83
2016-08-02T10:25:54.739Z,1003.84
2016-08-02T10:26:54.734Z,1003.81
2016-08-02T10:27:54.690Z,1003.79
2016-08-02T10:28:54.683Z,1003.83
2016-08-02T10:29:54.606Z,1003.86
2016-08-02T10:30:54.715Z,1003.78
2016-08-02T10:31:54.916Z,1003.79
2016-08-02T10:32:54.607Z,1003.79
2016-08-02T10:33:54.428Z,1003.79
2016-08-02T10:34:54.580Z,1003.76
2016-08-02T10:35:54.522Z,1003.74
2016-08-02T10:36:54.427Z,1003.69
2016-08-02T10:37:54.535Z,1003.74
2016-08-02T10:38:54.413Z,1003.77
2016-08-02T10:39:54.565Z,1003.74
2016-08-02T10:40:54.417Z,1003.78
2016-08-02T10:41:54.445Z,1003.8
2016-08-02T10:42:54.414Z,1003.81
2016-08-02T10:43:54.261Z,1003.79
2016-08-02T10:44:54.340Z,1003.79
2016-08-02T10:45:54.272Z,1003.76
2016-08-02T10:46:54.475Z,1003.73
2016-08-02T10:47:54.258Z,1003.8
2016-08-02T10:48:54.354Z,1003.79
2016-08-02T10:49:54.228Z,1003.76
2016-08-02T10:50:54.312Z,1003.76
2016-08-02T10:51:54.214Z,1003.75
2016-08-02T10:52:54.298Z,1003.78
2016-08-02T10:53:54.380Z,1003.74
2016-08-02T10:54:54.180Z,1003.75
2016-08-02T10:55:54.219Z,1003.77
2016-08-02T10:56:54.152Z,1003.76
2016-08-02T10:57:54.274Z,1003.78
2016-08-02T10:58:54.151Z,1003.77
2016-08-02T10:59:54.289Z,1003.79
2016-08-02T11:00:54.106Z,1003.76
2016-08-02T11:01:54.151Z,1003.8
2016-08-02T11:02:54.158Z,1003.77
2016-08-02T11:03:54.167Z,1003.81
2016-08-02T11:04:54.223Z,1003.84
2016-08-02T11:05:54.037Z,1003.8
2016-08-02T11:06:54.051Z,1003.78
2016-08-02T11:07:54.028Z,1003.84
2016-08-02T11:08:54.001Z,1003.8
2016-08-02T11:09:53.922Z,1003.87
2016-08-02T11:10:53.923Z,1003.84
2016-08-02T11:11:54.060Z,1003.87
2016-08-02T11:12:53.971Z,1003.87
2016-08-02T11:13:53.903Z,1003.87
2016-08-02T11:14:53.931Z,1003.85
2016-08-02T11:15:54.013Z,1003.8
2016-08-02T11:16:53.916Z,1003.84
2016-08-02T11:17:54.002Z,1003.76
2016-08-02T11:18:53.943Z,1003.82
2016-08-02T11:19:53.874Z,1003.79
2016-08-02T11:20:53.877Z,1003.79
2016-08-02T11:21:53.835Z,1003.77
2016-08-02T11:22:53.831Z,1003.73
2016-08-02T11:23:53.819Z,1003.7
2016-08-02T11:24:53.827Z,1003.7
2016-08-02T11:25:53.578Z,1003.72
2016-08-02T11:26:53.732Z,1003.64
2016-08-02T11:27:53.826Z,1003.7
2016-08-02T11:28:53.713Z,1003.69
2016-08-02T11:29:53.875Z,1003.67
2016-08-02T11:30:53.689Z,1003.7
2016-08-02T11:31:53.681Z,1003.7
2016-08-02T11:32:53.695Z,1003.67
2016-08-02T11:33:53.585Z,1003.6
2016-08-02T11:34:53.664Z,1003.62
2016-08-02T11:35:53.752Z,1003.6
2016-08-02T11:36:53.530Z,1003.57
2016-08-02T11:37:53.653Z,1003.59
2016-08-02T11:38:53.560Z,1003.64
2016-08-02T11:39:53.582Z,1003.63
2016-08-02T11:40:53.540Z,1003.61
2016-08-02T11:41:53.612Z,1003.61
2016-08-02T11:42:53.539Z,1003.69
2016-08-02T11:43:53.544Z,1003.68
2016-08-02T11:44:53.457Z,1003.71
2016-08-02T11:45:53.410Z,1003.72
2016-08-02T11:46:53.467Z,1003.69
2016-08-02T11:47:53.382Z,1003.66
2016-08-02T11:48:53.475Z,1003.65
2016-08-02T11:49:53.484Z,1003.64
2016-08-02T11:50:53.455Z,1003.71
2016-08-02T11:51:53.345Z,1003.66
2016-08-02T11:52:53.368Z,1003.7
2016-08-02T11:53:53.518Z,1003.73
2016-08-02T11:54:53.316Z,1003.71
2016-08-02T11:55:53.323Z,1003.72
2016-08-02T11:56:53.366Z,1003.7
2016-08-02T11:57:53.260Z,1003.73
2016-08-02T11:58:53.353Z,1003.74
2016-08-02T11:59:53.267Z,1003.77
2016-08-02T12:00:53.227Z,1003.75
2016-08-02T12:01:53.169Z,1003.69
2016-08-02T12:02:53.302Z,1003.74
2016-08-02T12:03:53.154Z,1003.78
2016-08-02T12:04:53.383Z,1003.68
2016-08-02T12:05:53.152Z,1003.73
2016-08-02T12:06:53.132Z,1003.74
2016-08-02T12:07:53.157Z,1003.75
2016-08-02T12:08:53.035Z,1003.73
2016-08-02T12:09:52.979Z,1003.75
2016-08-02T12:11:52.961Z,1003.77
2016-08-02T12:12:52.936Z,1003.75
2016-08-02T12:13:52.916Z,1003.71
2016-08-02T12:14:52.939Z,1003.73
2016-08-02T12:15:52.835Z,1003.72
2016-08-02T12:16:52.915Z,1003.68
2016-08-02T12:17:52.805Z,1003.71